MG0225 weather

Public forecast

Using degrees Celsius for public forecast. Weather courtesy of forecast.io.

Closest aviation weather report (METAR) to Palácio das Mangabeiras Heliport

Closest report is Carlos Prates Airport, 5.2 nm (9.5 km) WNW. Retrieved 2020/08/12 17:00 UTC (27 minutes ago):

SBPR 121700Z 04010KT 9999 BKN030 27/13 Q1019

Closest aviation forecast (TAF) to Palácio das Mangabeiras Heliport

Forecast is more than 12 hours old.

Closest forecast is Pampulha - Carlos Drummond de Andrade Airport, 6.5 nm (12.1 km) NNW. Retrieved 2012/03/26 18:12 UTC (8 years ago):

TAF SBBH 261639Z 2618/2706 09005KT 9999 SCT030 TX28/2618Z TN20/2705Z PROB30 2619/2624 8000 TSRA BKN035 FEW045CB RMK PGG